sensor_id;sensor_type;location;lat;lon;timestamp;P1;durP1;ratioP1;P2;durP2;ratioP2
239;SDS011;104;53.590;10.004;2024-02-23T00:01:34;3.10;;;2.47;;
239;SDS011;104;53.590;10.004;2024-02-23T00:04:01;5.53;;;2.77;;
239;SDS011;104;53.590;10.004;2024-02-23T00:06:31;4.60;;;2.90;;
239;SDS011;104;53.590;10.004;2024-02-23T00:08:58;7.57;;;2.90;;
239;SDS011;104;53.590;10.004;2024-02-23T00:11:26;4.33;;;2.63;;
239;SDS011;104;53.590;10.004;2024-02-23T00:13:54;5.57;;;2.90;;
239;SDS011;104;53.590;10.004;2024-02-23T00:16:22;3.53;;;2.40;;
239;SDS011;104;53.590;10.004;2024-02-23T00:18:51;3.73;;;2.47;;
239;SDS011;104;53.590;10.004;2024-02-23T00:21:18;5.03;;;2.43;;
239;SDS011;104;53.590;10.004;2024-02-23T00:23:45;4.80;;;2.60;;
239;SDS011;104;53.590;10.004;2024-02-23T00:26:13;3.30;;;2.10;;
239;SDS011;104;53.590;10.004;2024-02-23T00:28:40;5.23;;;2.50;;
239;SDS011;104;53.590;10.004;2024-02-23T00:31:07;2.80;;;2.30;;
239;SDS011;104;53.590;10.004;2024-02-23T00:33:36;3.33;;;1.93;;
239;SDS011;104;53.590;10.004;2024-02-23T00:36:07;4.20;;;2.50;;
239;SDS011;104;53.590;10.004;2024-02-23T00:38:34;3.53;;;2.40;;
239;SDS011;104;53.590;10.004;2024-02-23T00:41:02;4.40;;;2.50;;
239;SDS011;104;53.590;10.004;2024-02-23T00:43:30;3.20;;;2.33;;
239;SDS011;104;53.590;10.004;2024-02-23T00:45:57;4.40;;;2.53;;
239;SDS011;104;53.590;10.004;2024-02-23T00:48:24;7.20;;;2.60;;
239;SDS011;104;53.590;10.004;2024-02-23T00:50:52;3.73;;;2.50;;
239;SDS011;104;53.590;10.004;2024-02-23T00:53:20;3.40;;;2.27;;
239;SDS011;104;53.590;10.004;2024-02-23T00:55:47;3.20;;;1.90;;
239;SDS011;104;53.590;10.004;2024-02-23T00:58:14;3.17;;;2.13;;
239;SDS011;104;53.590;10.004;2024-02-23T01:00:42;5.80;;;3.23;;
239;SDS011;104;53.590;10.004;2024-02-23T01:03:09;2.83;;;2.10;;
239;SDS011;104;53.590;10.004;2024-02-23T01:05:36;4.63;;;2.30;;
239;SDS011;104;53.590;10.004;2024-02-23T01:08:06;3.83;;;2.40;;
239;SDS011;104;53.590;10.004;2024-02-23T01:10:33;4.20;;;2.57;;
239;SDS011;104;53.590;10.004;2024-02-23T01:13:01;8.83;;;3.10;;
239;SDS011;104;53.590;10.004;2024-02-23T01:15:28;4.97;;;2.60;;
239;SDS011;104;53.590;10.004;2024-02-23T01:17:55;5.57;;;2.40;;
239;SDS011;104;53.590;10.004;2024-02-23T01:20:22;4.10;;;2.37;;
239;SDS011;104;53.590;10.004;2024-02-23T01:22:50;5.43;;;2.77;;
239;SDS011;104;53.590;10.004;2024-02-23T01:25:18;4.30;;;2.50;;
239;SDS011;104;53.590;10.004;2024-02-23T01:27:45;6.00;;;2.53;;
239;SDS011;104;53.590;10.004;2024-02-23T01:30:13;7.37;;;2.60;;
239;SDS011;104;53.590;10.004;2024-02-23T01:32:40;5.63;;;2.87;;
239;SDS011;104;53.590;10.004;2024-02-23T01:35:08;5.83;;;2.73;;
239;SDS011;104;53.590;10.004;2024-02-23T01:37:35;9.40;;;2.53;;
239;SDS011;104;53.590;10.004;2024-02-23T01:40:03;4.67;;;2.07;;
239;SDS011;104;53.590;10.004;2024-02-23T01:42:32;4.53;;;2.00;;
239;SDS011;104;53.590;10.004;2024-02-23T01:44:59;10.33;;;2.40;;
239;SDS011;104;53.590;10.004;2024-02-23T01:47:26;3.83;;;1.93;;
239;SDS011;104;53.590;10.004;2024-02-23T01:49:55;4.13;;;1.57;;
239;SDS011;104;53.590;10.004;2024-02-23T01:52:23;5.80;;;2.10;;
239;SDS011;104;53.590;10.004;2024-02-23T01:54:50;4.33;;;2.07;;
239;SDS011;104;53.590;10.004;2024-02-23T01:57:17;6.17;;;2.20;;
239;SDS011;104;53.590;10.004;2024-02-23T01:59:46;5.10;;;2.10;;
239;SDS011;104;53.590;10.004;2024-02-23T02:02:13;6.17;;;2.70;;
239;SDS011;104;53.590;10.004;2024-02-23T02:04:40;8.87;;;2.57;;
239;SDS011;104;53.590;10.004;2024-02-23T02:07:07;5.47;;;2.30;;
239;SDS011;104;53.590;10.004;2024-02-23T02:09:35;2.57;;;1.70;;
239;SDS011;104;53.590;10.004;2024-02-23T02:12:02;5.10;;;2.07;;
239;SDS011;104;53.590;10.004;2024-02-23T02:14:29;3.37;;;1.87;;
239;SDS011;104;53.590;10.004;2024-02-23T02:16:59;5.07;;;2.27;;
239;SDS011;104;53.590;10.004;2024-02-23T02:19:27;3.97;;;2.07;;
239;SDS011;104;53.590;10.004;2024-02-23T02:21:54;4.33;;;1.90;;
239;SDS011;104;53.590;10.004;2024-02-23T02:24:21;9.70;;;3.00;;
239;SDS011;104;53.590;10.004;2024-02-23T02:26:48;5.87;;;2.30;;
239;SDS011;104;53.590;10.004;2024-02-23T02:29:16;5.20;;;2.43;;
239;SDS011;104;53.590;10.004;2024-02-23T02:31:43;3.87;;;1.80;;
239;SDS011;104;53.590;10.004;2024-02-23T02:34:11;5.03;;;2.20;;
239;SDS011;104;53.590;10.004;2024-02-23T02:36:39;4.37;;;2.03;;
239;SDS011;104;53.590;10.004;2024-02-23T02:39:07;8.33;;;3.77;;
239;SDS011;104;53.590;10.004;2024-02-23T02:41:35;6.10;;;2.43;;
239;SDS011;104;53.590;10.004;2024-02-23T02:44:02;8.97;;;3.20;;
239;SDS011;104;53.590;10.004;2024-02-23T02:46:29;3.57;;;1.90;;
239;SDS011;104;53.590;10.004;2024-02-23T02:48:57;3.67;;;2.00;;
239;SDS011;104;53.590;10.004;2024-02-23T02:51:25;4.10;;;2.03;;
239;SDS011;104;53.590;10.004;2024-02-23T02:53:52;1.70;;;1.40;;
239;SDS011;104;53.590;10.004;2024-02-23T02:56:19;3.30;;;1.90;;
239;SDS011;104;53.590;10.004;2024-02-23T02:58:47;3.30;;;1.80;;
239;SDS011;104;53.590;10.004;2024-02-23T03:01:14;5.43;;;1.60;;
239;SDS011;104;53.590;10.004;2024-02-23T03:03:41;3.53;;;1.93;;
239;SDS011;104;53.590;10.004;2024-02-23T03:06:08;2.70;;;1.80;;
239;SDS011;104;53.590;10.004;2024-02-23T03:08:37;2.97;;;1.40;;
239;SDS011;104;53.590;10.004;2024-02-23T03:11:04;2.97;;;1.80;;
239;SDS011;104;53.590;10.004;2024-02-23T03:13:32;3.60;;;2.07;;
239;SDS011;104;53.590;10.004;2024-02-23T03:15:59;5.73;;;2.13;;
239;SDS011;104;53.590;10.004;2024-02-23T03:18:26;4.17;;;1.33;;
239;SDS011;104;53.590;10.004;2024-02-23T03:20:53;3.83;;;1.40;;
239;SDS011;104;53.590;10.004;2024-02-23T03:23:21;4.20;;;1.93;;
239;SDS011;104;53.590;10.004;2024-02-23T03:25:50;6.20;;;1.93;;
239;SDS011;104;53.590;10.004;2024-02-23T03:28:17;2.50;;;1.60;;
239;SDS011;104;53.590;10.004;2024-02-23T03:30:44;1.97;;;1.40;;
239;SDS011;104;53.590;10.004;2024-02-23T03:33:11;1.90;;;1.53;;
239;SDS011;104;53.590;10.004;2024-02-23T03:35:38;6.43;;;1.77;;
239;SDS011;104;53.590;10.004;2024-02-23T03:38:06;2.07;;;1.40;;
239;SDS011;104;53.590;10.004;2024-02-23T03:40:33;3.50;;;1.80;;
239;SDS011;104;53.590;10.004;2024-02-23T03:43:02;3.67;;;1.80;;
239;SDS011;104;53.590;10.004;2024-02-23T03:45:30;2.77;;;1.70;;
239;SDS011;104;53.590;10.004;2024-02-23T03:47:57;2.27;;;1.80;;
239;SDS011;104;53.590;10.004;2024-02-23T03:50:25;2.60;;;1.40;;
239;SDS011;104;53.590;10.004;2024-02-23T03:52:52;3.03;;;1.80;;
239;SDS011;104;53.590;10.004;2024-02-23T03:55:19;3.27;;;2.23;;
239;SDS011;104;53.590;10.004;2024-02-23T03:57:47;3.10;;;1.70;;
239;SDS011;104;53.590;10.004;2024-02-23T04:00:16;5.70;;;1.57;;
239;SDS011;104;53.590;10.004;2024-02-23T04:02:48;2.80;;;1.80;;
239;SDS011;104;53.590;10.004;2024-02-23T04:05:15;3.30;;;2.00;;
239;SDS011;104;53.590;10.004;2024-02-23T04:07:44;2.70;;;1.67;;
239;SDS011;104;53.590;10.004;2024-02-23T04:10:11;4.03;;;2.13;;
239;SDS011;104;53.590;10.004;2024-02-23T04:12:41;3.57;;;2.33;;
239;SDS011;104;53.590;10.004;2024-02-23T04:15:09;3.00;;;1.70;;
239;SDS011;104;53.590;10.004;2024-02-23T04:17:37;4.63;;;2.00;;
239;SDS011;104;53.590;10.004;2024-02-23T04:20:05;3.43;;;2.00;;
239;SDS011;104;53.590;10.004;2024-02-23T04:22:33;2.17;;;1.70;;
239;SDS011;104;53.590;10.004;2024-02-23T04:25:00;2.30;;;1.37;;
239;SDS011;104;53.590;10.004;2024-02-23T04:27:27;2.43;;;1.40;;
239;SDS011;104;53.590;10.004;2024-02-23T04:29:55;3.37;;;1.80;;
239;SDS011;104;53.590;10.004;2024-02-23T04:32:22;3.03;;;1.60;;
239;SDS011;104;53.590;10.004;2024-02-23T04:34:51;2.17;;;1.60;;
239;SDS011;104;53.590;10.004;2024-02-23T04:37:19;3.10;;;1.90;;
239;SDS011;104;53.590;10.004;2024-02-23T04:39:46;3.10;;;1.57;;
239;SDS011;104;53.590;10.004;2024-02-23T04:42:13;1.60;;;1.50;;
239;SDS011;104;53.590;10.004;2024-02-23T04:44:41;2.83;;;1.80;;
239;SDS011;104;53.590;10.004;2024-02-23T04:47:08;2.53;;;1.77;;
239;SDS011;104;53.590;10.004;2024-02-23T04:49:35;4.43;;;1.60;;
239;SDS011;104;53.590;10.004;2024-02-23T04:52:04;1.53;;;1.40;;
239;SDS011;104;53.590;10.004;2024-02-23T04:54:32;2.10;;;1.50;;
239;SDS011;104;53.590;10.004;2024-02-23T04:57:00;5.00;;;2.27;;
239;SDS011;104;53.590;10.004;2024-02-23T04:59:27;1.97;;;1.60;;
239;SDS011;104;53.590;10.004;2024-02-23T05:01:56;9.07;;;2.87;;
239;SDS011;104;53.590;10.004;2024-02-23T05:04:24;2.47;;;1.87;;
239;SDS011;104;53.590;10.004;2024-02-23T05:06:51;3.57;;;1.77;;
239;SDS011;104;53.590;10.004;2024-02-23T05:09:20;6.43;;;1.80;;
239;SDS011;104;53.590;10.004;2024-02-23T05:11:48;2.73;;;1.90;;
239;SDS011;104;53.590;10.004;2024-02-23T05:14:15;1.93;;;1.67;;
239;SDS011;104;53.590;10.004;2024-02-23T05:16:42;1.90;;;1.60;;
239;SDS011;104;53.590;10.004;2024-02-23T05:19:09;4.70;;;2.20;;
239;SDS011;104;53.590;10.004;2024-02-23T05:21:37;2.63;;;1.80;;
239;SDS011;104;53.590;10.004;2024-02-23T05:24:04;6.93;;;2.30;;
239;SDS011;104;53.590;10.004;2024-02-23T05:26:34;4.13;;;2.00;;
239;SDS011;104;53.590;10.004;2024-02-23T05:29:01;9.90;;;2.10;;
239;SDS011;104;53.590;10.004;2024-02-23T05:31:43;3.93;;;2.23;;
239;SDS011;104;53.590;10.004;2024-02-23T05:34:10;7.17;;;3.43;;
239;SDS011;104;53.590;10.004;2024-02-23T05:36:38;3.10;;;2.00;;
239;SDS011;104;53.590;10.004;2024-02-23T05:39:05;4.70;;;2.20;;
239;SDS011;104;53.590;10.004;2024-02-23T05:41:34;10.27;;;4.73;;
239;SDS011;104;53.590;10.004;2024-02-23T05:44:01;3.50;;;2.10;;
239;SDS011;104;53.590;10.004;2024-02-23T05:46:30;6.03;;;2.33;;
239;SDS011;104;53.590;10.004;2024-02-23T05:48:57;2.90;;;1.90;;
239;SDS011;104;53.590;10.004;2024-02-23T05:51:24;6.63;;;2.17;;
239;SDS011;104;53.590;10.004;2024-02-23T05:53:54;4.73;;;2.40;;
239;SDS011;104;53.590;10.004;2024-02-23T05:56:21;3.67;;;2.27;;
239;SDS011;104;53.590;10.004;2024-02-23T05:58:51;5.00;;;2.93;;
239;SDS011;104;53.590;10.004;2024-02-23T06:01:18;5.00;;;2.23;;
239;SDS011;104;53.590;10.004;2024-02-23T06:03:45;2.90;;;1.93;;
239;SDS011;104;53.590;10.004;2024-02-23T06:06:12;2.67;;;1.80;;
239;SDS011;104;53.590;10.004;2024-02-23T06:08:40;5.13;;;2.90;;
239;SDS011;104;53.590;10.004;2024-02-23T06:11:09;20.13;;;3.30;;
239;SDS011;104;53.590;10.004;2024-02-23T06:13:36;7.27;;;3.00;;
239;SDS011;104;53.590;10.004;2024-02-23T06:16:09;3.77;;;2.03;;
239;SDS011;104;53.590;10.004;2024-02-23T06:18:36;4.80;;;2.13;;
239;SDS011;104;53.590;10.004;2024-02-23T06:21:10;6.93;;;2.40;;
239;SDS011;104;53.590;10.004;2024-02-23T06:23:38;8.03;;;4.20;;
239;SDS011;104;53.590;10.004;2024-02-23T06:26:06;3.13;;;2.07;;
239;SDS011;104;53.590;10.004;2024-02-23T06:28:33;4.43;;;2.33;;
239;SDS011;104;53.590;10.004;2024-02-23T06:31:02;3.97;;;2.40;;
239;SDS011;104;53.590;10.004;2024-02-23T06:33:31;4.10;;;2.40;;
239;SDS011;104;53.590;10.004;2024-02-23T06:35:58;6.33;;;2.67;;
239;SDS011;104;53.590;10.004;2024-02-23T06:38:26;7.27;;;3.50;;
239;SDS011;104;53.590;10.004;2024-02-23T06:40:53;3.80;;;2.37;;
239;SDS011;104;53.590;10.004;2024-02-23T06:43:21;8.07;;;3.60;;
239;SDS011;104;53.590;10.004;2024-02-23T06:45:50;2.90;;;1.87;;
239;SDS011;104;53.590;10.004;2024-02-23T06:48:17;5.33;;;2.57;;
239;SDS011;104;53.590;10.004;2024-02-23T06:50:46;7.73;;;2.47;;
239;SDS011;104;53.590;10.004;2024-02-23T06:53:13;5.37;;;2.83;;
239;SDS011;104;53.590;10.004;2024-02-23T06:55:40;4.00;;;2.40;;
239;SDS011;104;53.590;10.004;2024-02-23T06:58:08;11.30;;;2.40;;
239;SDS011;104;53.590;10.004;2024-02-23T07:00:35;3.30;;;2.00;;
239;SDS011;104;53.590;10.004;2024-02-23T07:03:03;5.43;;;2.70;;
239;SDS011;104;53.590;10.004;2024-02-23T07:05:31;5.23;;;2.53;;
239;SDS011;104;53.590;10.004;2024-02-23T07:07:59;5.97;;;3.07;;
239;SDS011;104;53.590;10.004;2024-02-23T07:10:26;5.03;;;2.70;;
239;SDS011;104;53.590;10.004;2024-02-23T07:12:54;7.70;;;3.30;;
239;SDS011;104;53.590;10.004;2024-02-23T07:15:23;6.93;;;2.90;;
239;SDS011;104;53.590;10.004;2024-02-23T07:17:51;6.30;;;2.97;;
239;SDS011;104;53.590;10.004;2024-02-23T07:20:18;12.63;;;3.27;;
239;SDS011;104;53.590;10.004;2024-02-23T07:22:46;6.67;;;3.23;;
239;SDS011;104;53.590;10.004;2024-02-23T07:25:17;6.37;;;3.73;;
239;SDS011;104;53.590;10.004;2024-02-23T07:27:45;7.13;;;4.00;;
239;SDS011;104;53.590;10.004;2024-02-23T07:30:14;10.00;;;5.07;;
239;SDS011;104;53.590;10.004;2024-02-23T07:32:41;8.57;;;3.90;;
239;SDS011;104;53.590;10.004;2024-02-23T07:35:09;11.37;;;4.47;;
239;SDS011;104;53.590;10.004;2024-02-23T07:37:36;11.73;;;4.40;;
239;SDS011;104;53.590;10.004;2024-02-23T07:40:03;6.33;;;3.17;;
239;SDS011;104;53.590;10.004;2024-02-23T07:42:32;10.63;;;3.13;;
239;SDS011;104;53.590;10.004;2024-02-23T07:45:00;5.50;;;3.00;;
239;SDS011;104;53.590;10.004;2024-02-23T07:47:29;9.57;;;3.77;;
239;SDS011;104;53.590;10.004;2024-02-23T07:49:57;5.67;;;3.00;;
239;SDS011;104;53.590;10.004;2024-02-23T07:52:25;8.47;;;2.47;;
239;SDS011;104;53.590;10.004;2024-02-23T07:54:52;6.90;;;3.37;;
239;SDS011;104;53.590;10.004;2024-02-23T07:57:19;7.17;;;2.80;;
239;SDS011;104;53.590;10.004;2024-02-23T07:59:48;5.30;;;2.67;;
239;SDS011;104;53.590;10.004;2024-02-23T08:02:15;4.27;;;2.60;;
239;SDS011;104;53.590;10.004;2024-02-23T08:04:42;12.23;;;3.33;;
239;SDS011;104;53.590;10.004;2024-02-23T08:07:12;5.73;;;2.63;;
239;SDS011;104;53.590;10.004;2024-02-23T08:09:40;5.07;;;2.43;;
239;SDS011;104;53.590;10.004;2024-02-23T08:12:07;6.30;;;3.10;;
239;SDS011;104;53.590;10.004;2024-02-23T08:14:34;7.93;;;3.37;;
239;SDS011;104;53.590;10.004;2024-02-23T08:17:03;5.77;;;2.80;;
239;SDS011;104;53.590;10.004;2024-02-23T08:19:30;6.20;;;2.87;;
239;SDS011;104;53.590;10.004;2024-02-23T08:21:57;7.23;;;3.43;;
239;SDS011;104;53.590;10.004;2024-02-23T08:24:25;7.07;;;2.93;;
239;SDS011;104;53.590;10.004;2024-02-23T08:26:52;5.43;;;3.17;;
239;SDS011;104;53.590;10.004;2024-02-23T08:29:19;6.67;;;3.30;;
239;SDS011;104;53.590;10.004;2024-02-23T08:31:47;5.20;;;2.80;;
239;SDS011;104;53.590;10.004;2024-02-23T08:34:16;7.13;;;3.17;;
239;SDS011;104;53.590;10.004;2024-02-23T08:36:43;4.43;;;2.73;;
239;SDS011;104;53.590;10.004;2024-02-23T08:39:10;6.00;;;3.37;;
239;SDS011;104;53.590;10.004;2024-02-23T08:41:38;9.40;;;2.83;;
239;SDS011;104;53.590;10.004;2024-02-23T08:44:05;11.20;;;4.67;;
239;SDS011;104;53.590;10.004;2024-02-23T08:46:32;9.57;;;2.77;;
239;SDS011;104;53.590;10.004;2024-02-23T08:48:59;6.30;;;3.30;;
239;SDS011;104;53.590;10.004;2024-02-23T08:51:28;5.80;;;3.07;;
239;SDS011;104;53.590;10.004;2024-02-23T08:53:55;5.30;;;2.80;;
239;SDS011;104;53.590;10.004;2024-02-23T08:56:28;5.23;;;3.40;;
239;SDS011;104;53.590;10.004;2024-02-23T08:58:55;5.63;;;2.60;;
239;SDS011;104;53.590;10.004;2024-02-23T09:01:22;5.57;;;3.07;;
239;SDS011;104;53.590;10.004;2024-02-23T09:03:50;7.07;;;2.83;;
239;SDS011;104;53.590;10.004;2024-02-23T09:06:17;7.17;;;3.20;;
239;SDS011;104;53.590;10.004;2024-02-23T09:08:46;5.23;;;2.87;;
239;SDS011;104;53.590;10.004;2024-02-23T09:45:05;6.53;;;3.50;;
239;SDS011;104;53.590;10.004;2024-02-23T09:47:34;13.40;;;4.53;;
239;SDS011;104;53.590;10.004;2024-02-23T09:50:01;6.97;;;3.20;;
239;SDS011;104;53.590;10.004;2024-02-23T09:52:30;9.50;;;3.73;;
239;SDS011;104;53.590;10.004;2024-02-23T09:54:59;7.30;;;3.30;;
239;SDS011;104;53.590;10.004;2024-02-23T09:57:28;12.60;;;3.97;;
239;SDS011;104;53.590;10.004;2024-02-23T09:59:56;10.80;;;4.20;;
239;SDS011;104;53.590;10.004;2024-02-23T10:02:24;6.03;;;3.10;;
239;SDS011;104;53.590;10.004;2024-02-23T10:04:52;6.63;;;3.20;;
239;SDS011;104;53.590;10.004;2024-02-23T10:07:21;7.13;;;3.47;;
239;SDS011;104;53.590;10.004;2024-02-23T10:09:48;7.10;;;2.93;;
239;SDS011;104;53.590;10.004;2024-02-23T10:12:15;6.97;;;3.27;;
239;SDS011;104;53.590;10.004;2024-02-23T10:14:43;7.40;;;3.20;;
239;SDS011;104;53.590;10.004;2024-02-23T10:17:10;14.93;;;5.67;;
239;SDS011;104;53.590;10.004;2024-02-23T10:19:38;12.30;;;3.90;;
239;SDS011;104;53.590;10.004;2024-02-23T10:22:06;3.63;;;2.53;;
239;SDS011;104;53.590;10.004;2024-02-23T10:24:33;8.80;;;3.53;;
239;SDS011;104;53.590;10.004;2024-02-23T10:27:00;10.13;;;4.03;;
239;SDS011;104;53.590;10.004;2024-02-23T10:29:28;7.30;;;3.30;;
239;SDS011;104;53.590;10.004;2024-02-23T10:31:56;8.17;;;3.50;;
239;SDS011;104;53.590;10.004;2024-02-23T10:34:23;11.47;;;3.30;;
239;SDS011;104;53.590;10.004;2024-02-23T10:36:52;6.33;;;2.83;;
239;SDS011;104;53.590;10.004;2024-02-23T10:39:19;9.53;;;3.80;;
239;SDS011;104;53.590;10.004;2024-02-23T10:41:51;15.03;;;5.40;;
239;SDS011;104;53.590;10.004;2024-02-23T10:44:19;6.30;;;3.33;;
239;SDS011;104;53.590;10.004;2024-02-23T10:46:47;7.37;;;2.80;;
239;SDS011;104;53.590;10.004;2024-02-23T10:49:16;9.90;;;4.23;;
239;SDS011;104;53.590;10.004;2024-02-23T10:51:45;6.23;;;2.90;;
239;SDS011;104;53.590;10.004;2024-02-23T10:54:16;11.80;;;3.60;;
239;SDS011;104;53.590;10.004;2024-02-23T10:56:46;12.10;;;3.97;;
239;SDS011;104;53.590;10.004;2024-02-23T10:59:13;13.57;;;5.10;;
239;SDS011;104;53.590;10.004;2024-02-23T11:01:43;5.67;;;3.10;;
239;SDS011;104;53.590;10.004;2024-02-23T11:04:10;7.20;;;3.30;;
239;SDS011;104;53.590;10.004;2024-02-23T11:06:39;4.87;;;3.10;;
239;SDS011;104;53.590;10.004;2024-02-23T11:09:07;11.83;;;3.67;;
239;SDS011;104;53.590;10.004;2024-02-23T11:11:36;6.67;;;2.90;;
239;SDS011;104;53.590;10.004;2024-02-23T11:14:06;9.60;;;3.50;;
239;SDS011;104;53.590;10.004;2024-02-23T11:16:38;15.30;;;2.93;;
239;SDS011;104;53.590;10.004;2024-02-23T11:19:06;8.73;;;2.97;;
239;SDS011;104;53.590;10.004;2024-02-23T11:21:34;5.90;;;2.80;;
239;SDS011;104;53.590;10.004;2024-02-23T11:24:03;12.30;;;4.20;;
239;SDS011;104;53.590;10.004;2024-02-23T11:26:30;6.43;;;2.80;;
239;SDS011;104;53.590;10.004;2024-02-23T11:29:09;6.30;;;3.37;;
239;SDS011;104;53.590;10.004;2024-02-23T11:31:36;7.13;;;3.13;;
239;SDS011;104;53.590;10.004;2024-02-23T11:34:07;9.03;;;3.10;;
239;SDS011;104;53.590;10.004;2024-02-23T11:36:35;8.43;;;3.60;;
239;SDS011;104;53.590;10.004;2024-02-23T11:39:02;10.33;;;3.70;;
239;SDS011;104;53.590;10.004;2024-02-23T11:41:30;16.00;;;5.63;;
239;SDS011;104;53.590;10.004;2024-02-23T11:43:58;9.63;;;3.90;;
239;SDS011;104;53.590;10.004;2024-02-23T11:46:26;10.10;;;3.53;;
239;SDS011;104;53.590;10.004;2024-02-23T11:48:53;12.00;;;3.80;;
239;SDS011;104;53.590;10.004;2024-02-23T11:51:21;9.63;;;3.93;;
239;SDS011;104;53.590;10.004;2024-02-23T11:53:51;5.50;;;2.90;;
239;SDS011;104;53.590;10.004;2024-02-23T11:56:21;10.07;;;3.67;;
239;SDS011;104;53.590;10.004;2024-02-23T11:58:49;9.27;;;2.87;;
239;SDS011;104;53.590;10.004;2024-02-23T12:01:16;12.50;;;4.13;;
239;SDS011;104;53.590;10.004;2024-02-23T12:03:45;5.77;;;3.00;;
239;SDS011;104;53.590;10.004;2024-02-23T12:06:13;4.17;;;2.20;;
239;SDS011;104;53.590;10.004;2024-02-23T12:08:41;7.83;;;3.47;;
239;SDS011;104;53.590;10.004;2024-02-23T12:11:10;4.97;;;2.70;;
239;SDS011;104;53.590;10.004;2024-02-23T12:13:39;9.40;;;3.93;;
239;SDS011;104;53.590;10.004;2024-02-23T12:16:07;19.63;;;6.60;;
239;SDS011;104;53.590;10.004;2024-02-23T12:18:35;9.13;;;3.90;;
239;SDS011;104;53.590;10.004;2024-02-23T12:21:04;6.63;;;3.67;;
239;SDS011;104;53.590;10.004;2024-02-23T12:23:41;6.50;;;3.20;;
239;SDS011;104;53.590;10.004;2024-02-23T12:26:09;8.00;;;3.57;;
239;SDS011;104;53.590;10.004;2024-02-23T12:28:38;5.97;;;2.93;;
239;SDS011;104;53.590;10.004;2024-02-23T12:31:05;4.73;;;2.10;;
239;SDS011;104;53.590;10.004;2024-02-23T12:33:33;4.67;;;2.60;;
239;SDS011;104;53.590;10.004;2024-02-23T12:36:01;10.50;;;3.10;;
239;SDS011;104;53.590;10.004;2024-02-23T12:38:30;18.63;;;3.30;;
239;SDS011;104;53.590;10.004;2024-02-23T12:40:57;7.70;;;3.20;;
239;SDS011;104;53.590;10.004;2024-02-23T12:43:25;9.50;;;3.80;;
239;SDS011;104;53.590;10.004;2024-02-23T12:45:53;4.23;;;2.53;;
239;SDS011;104;53.590;10.004;2024-02-23T12:48:21;9.50;;;3.70;;
239;SDS011;104;53.590;10.004;2024-02-23T12:50:48;7.00;;;3.20;;
239;SDS011;104;53.590;10.004;2024-02-23T12:56:01;3.73;;;2.27;;
239;SDS011;104;53.590;10.004;2024-02-23T12:58:28;5.07;;;2.67;;
239;SDS011;104;53.590;10.004;2024-02-23T13:00:55;4.03;;;2.70;;
239;SDS011;104;53.590;10.004;2024-02-23T13:03:23;5.90;;;2.53;;
239;SDS011;104;53.590;10.004;2024-02-23T13:05:51;6.40;;;2.03;;
239;SDS011;104;53.590;10.004;2024-02-23T13:08:21;4.07;;;2.30;;
239;SDS011;104;53.590;10.004;2024-02-23T13:10:48;8.50;;;3.07;;
239;SDS011;104;53.590;10.004;2024-02-23T13:13:17;9.97;;;3.60;;
239;SDS011;104;53.590;10.004;2024-02-23T13:15:44;10.00;;;3.57;;
239;SDS011;104;53.590;10.004;2024-02-23T13:18:12;6.77;;;3.20;;
239;SDS011;104;53.590;10.004;2024-02-23T13:20:39;13.50;;;3.20;;
239;SDS011;104;53.590;10.004;2024-02-23T13:23:07;8.20;;;2.90;;
239;SDS011;104;53.590;10.004;2024-02-23T13:25:34;4.17;;;2.60;;
239;SDS011;104;53.590;10.004;2024-02-23T13:28:02;4.70;;;2.50;;
239;SDS011;104;53.590;10.004;2024-02-23T13:30:31;7.30;;;2.90;;
239;SDS011;104;53.590;10.004;2024-02-23T13:32:58;5.03;;;2.47;;
239;SDS011;104;53.590;10.004;2024-02-23T13:35:26;5.13;;;2.60;;
239;SDS011;104;53.590;10.004;2024-02-23T13:37:53;6.43;;;2.80;;
239;SDS011;104;53.590;10.004;2024-02-23T13:40:22;7.40;;;3.93;;
239;SDS011;104;53.590;10.004;2024-02-23T13:42:49;8.60;;;3.03;;
239;SDS011;104;53.590;10.004;2024-02-23T13:45:18;9.93;;;3.40;;
239;SDS011;104;53.590;10.004;2024-02-23T13:47:56;10.80;;;3.27;;
239;SDS011;104;53.590;10.004;2024-02-23T13:50:24;6.73;;;2.67;;
239;SDS011;104;53.590;10.004;2024-02-23T13:52:51;6.50;;;2.80;;
239;SDS011;104;53.590;10.004;2024-02-23T13:55:19;6.70;;;3.13;;
239;SDS011;104;53.590;10.004;2024-02-23T13:57:46;15.20;;;2.90;;
239;SDS011;104;53.590;10.004;2024-02-23T14:00:14;10.40;;;3.90;;
239;SDS011;104;53.590;10.004;2024-02-23T14:02:42;9.90;;;3.70;;
239;SDS011;104;53.590;10.004;2024-02-23T14:05:11;7.60;;;3.00;;
239;SDS011;104;53.590;10.004;2024-02-23T14:07:38;5.30;;;2.80;;
239;SDS011;104;53.590;10.004;2024-02-23T14:10:06;10.83;;;3.63;;
239;SDS011;104;53.590;10.004;2024-02-23T14:12:33;7.57;;;3.27;;
239;SDS011;104;53.590;10.004;2024-02-23T14:15:01;5.97;;;3.07;;
239;SDS011;104;53.590;10.004;2024-02-23T14:17:29;9.40;;;3.00;;
239;SDS011;104;53.590;10.004;2024-02-23T14:19:57;4.63;;;2.63;;
239;SDS011;104;53.590;10.004;2024-02-23T14:22:25;4.27;;;2.57;;
239;SDS011;104;53.590;10.004;2024-02-23T14:24:53;6.53;;;3.13;;
239;SDS011;104;53.590;10.004;2024-02-23T14:27:20;17.13;;;5.77;;
239;SDS011;104;53.590;10.004;2024-02-23T14:29:48;13.53;;;4.83;;
239;SDS011;104;53.590;10.004;2024-02-23T14:32:16;13.93;;;3.73;;
239;SDS011;104;53.590;10.004;2024-02-23T14:34:43;11.53;;;3.87;;
239;SDS011;104;53.590;10.004;2024-02-23T14:37:11;7.43;;;3.30;;
239;SDS011;104;53.590;10.004;2024-02-23T14:39:40;5.20;;;2.63;;
239;SDS011;104;53.590;10.004;2024-02-23T14:42:08;14.00;;;3.80;;
239;SDS011;104;53.590;10.004;2024-02-23T14:44:35;7.70;;;3.40;;
239;SDS011;104;53.590;10.004;2024-02-23T14:47:03;9.20;;;2.80;;
239;SDS011;104;53.590;10.004;2024-02-23T14:49:30;8.70;;;3.27;;
239;SDS011;104;53.590;10.004;2024-02-23T14:51:59;7.53;;;3.47;;
239;SDS011;104;53.590;10.004;2024-02-23T14:54:28;13.27;;;4.07;;
239;SDS011;104;53.590;10.004;2024-02-23T14:56:57;4.50;;;2.70;;
239;SDS011;104;53.590;10.004;2024-02-23T14:59:24;7.17;;;3.37;;
239;SDS011;104;53.590;10.004;2024-02-23T15:01:52;8.93;;;3.20;;
239;SDS011;104;53.590;10.004;2024-02-23T15:04:19;9.20;;;3.40;;
239;SDS011;104;53.590;10.004;2024-02-23T15:06:47;15.90;;;4.53;;
239;SDS011;104;53.590;10.004;2024-02-23T15:09:14;29.27;;;4.40;;
239;SDS011;104;53.590;10.004;2024-02-23T15:11:41;7.97;;;3.70;;
239;SDS011;104;53.590;10.004;2024-02-23T15:14:10;8.33;;;3.30;;
239;SDS011;104;53.590;10.004;2024-02-23T15:16:40;11.20;;;4.40;;
239;SDS011;104;53.590;10.004;2024-02-23T15:19:07;10.57;;;3.80;;
239;SDS011;104;53.590;10.004;2024-02-23T15:21:35;12.50;;;4.17;;
239;SDS011;104;53.590;10.004;2024-02-23T15:24:06;12.70;;;4.80;;
239;SDS011;104;53.590;10.004;2024-02-23T15:26:33;8.57;;;3.40;;
239;SDS011;104;53.590;10.004;2024-02-23T15:29:00;5.23;;;2.67;;
239;SDS011;104;53.590;10.004;2024-02-23T15:31:30;12.73;;;3.17;;
239;SDS011;104;53.590;10.004;2024-02-23T15:33:57;7.03;;;3.53;;
239;SDS011;104;53.590;10.004;2024-02-23T15:36:27;17.60;;;3.57;;
239;SDS011;104;53.590;10.004;2024-02-23T15:39:08;6.40;;;3.50;;
239;SDS011;104;53.590;10.004;2024-02-23T15:41:36;16.50;;;3.90;;
239;SDS011;104;53.590;10.004;2024-02-23T15:44:04;9.90;;;4.10;;
239;SDS011;104;53.590;10.004;2024-02-23T15:46:32;11.63;;;5.03;;
239;SDS011;104;53.590;10.004;2024-02-23T15:49:00;5.70;;;3.50;;
239;SDS011;104;53.590;10.004;2024-02-23T15:51:27;7.83;;;4.50;;
239;SDS011;104;53.590;10.004;2024-02-23T15:53:58;11.20;;;5.27;;
239;SDS011;104;53.590;10.004;2024-02-23T15:56:26;11.77;;;4.50;;
239;SDS011;104;53.590;10.004;2024-02-23T15:59:07;17.20;;;3.67;;
239;SDS011;104;53.590;10.004;2024-02-23T16:01:37;11.37;;;4.07;;
239;SDS011;104;53.590;10.004;2024-02-23T16:04:06;9.90;;;4.10;;
239;SDS011;104;53.590;10.004;2024-02-23T16:06:35;11.80;;;4.40;;
239;SDS011;104;53.590;10.004;2024-02-23T16:09:02;7.40;;;3.80;;